Avalon, MS

2:46 AM CST on December 09, 2016 (GMT -0600)
North Greenwood | | Change Station

Elev 141 ft 33.53 °N, 90.18 °W | Updated 8 minutes ago

Clear
Clear
24.6 °F
Feels Like 25 °F
N
0.0
Wind Variable Wind from South

Today
High -- | Low -- °F
--% Chance of Precip.
Yesterday
High -- | Low -- °F
Precip. -- in
Pressure 30.61 in
Visibility 10.0 miles
Clouds Clear
Windchill 25 °F
Dew Point 23 °F
Humidity 94%
Rainfall 0.00 in
Snow Depth Not available.
6:53 AM 4:52 PM
Waxing Gibbous, 72% visible
METAR KGWO 090753Z AUTO 00000KT 10SM CLR M04/M07 A3060 RMK AO2 SLP363 T10391067
Pressure 30.61 in
Visibility 10.0 miles
Clouds Clear
Windchill 25 °F
Dew Point 23 °F
Humidity 94%
Rainfall 0.00 in
Snow Depth Not available.
6:53 AM 4:52 PM
Waxing Gibbous, 72% visible
METAR KGWO 090753Z AUTO 00000KT 10SM CLR M04/M07 A3060 RMK AO2 SLP363 T10391067

10-Day Weather Forecast

Almanac

Astronomy

Dec. 09, 2016 Rise Set
Actual Time
Civil Twilight
Nautical Twilight
Astronomical Twilight
Moon
Length of Visible Light
Length of Day
Tomorrow will be .
, % of the Moon is Illuminated

Today's Extremes

State Highs State Lows

Community

WunderPhotos

Upload Photos

1,956,371 photos uploaded!

WunderBlog® & News

Nearby

Air Quality

  Air Quality AQ Index Pollutant
Not available.

Snow Depth

Station Depth Elevation

Earthquake Activity

City Distance Mag. Time & Date
Minimum magnitude displayed is 2.5.

Coastal Water Temperatures

Place Temperature

Stations

Nearby Weather Stations

Station Location Temp. Windchill Dew Point Humidity Wind Precip. Elev Updated Type
                   

Watches & Warnings

There are currently no watches in effect.